createdAt,value
2022-07-27T00:01:06.730Z,17.64
2022-07-27T00:03:35.984Z,17.62
2022-07-27T00:06:03.815Z,17.62
2022-07-27T00:08:31.693Z,17.62
2022-07-27T00:10:59.469Z,17.62
2022-07-27T00:13:27.353Z,17.65
2022-07-27T00:15:55.247Z,17.62
2022-07-27T00:18:22.954Z,17.60
2022-07-27T00:20:52.037Z,17.61
2022-07-27T00:23:19.761Z,17.56
2022-07-27T00:25:47.680Z,17.57
2022-07-27T00:28:15.495Z,17.49
2022-07-27T00:30:43.258Z,17.49
2022-07-27T00:33:11.001Z,17.54
2022-07-27T00:35:45.256Z,17.55
2022-07-27T00:38:14.722Z,17.56
2022-07-27T00:40:42.463Z,17.52
2022-07-27T00:43:10.298Z,17.52
2022-07-27T00:45:38.889Z,17.53
2022-07-27T00:48:07.369Z,17.53
2022-07-27T00:50:35.949Z,17.56
2022-07-27T00:53:05.977Z,17.54
2022-07-27T00:55:35.711Z,17.50
2022-07-27T00:58:05.838Z,17.51
2022-07-27T01:00:33.600Z,17.43
2022-07-27T01:03:02.666Z,17.38
2022-07-27T01:05:43.122Z,17.26
2022-07-27T01:08:13.563Z,17.26
2022-07-27T01:10:44.524Z,17.26
2022-07-27T01:13:13.550Z,17.22
2022-07-27T01:15:42.616Z,17.18
2022-07-27T01:18:13.720Z,17.12
2022-07-27T01:20:42.186Z,17.12
2022-07-27T01:23:11.408Z,17.14
2022-07-27T01:25:42.431Z,17.08
2022-07-27T01:28:10.546Z,17.07
2022-07-27T01:30:38.370Z,17.08
2022-07-27T01:33:09.148Z,17.05
2022-07-27T01:35:37.931Z,17.00
2022-07-27T01:38:06.271Z,16.99
2022-07-27T01:40:36.812Z,17.01
2022-07-27T01:43:06.116Z,17.01
2022-07-27T01:45:33.958Z,17.00
2022-07-27T01:48:01.898Z,16.98
2022-07-27T01:50:29.911Z,16.95
2022-07-27T01:52:57.639Z,16.92
2022-07-27T01:55:25.399Z,16.91
2022-07-27T01:57:54.547Z,16.87
2022-07-27T02:00:22.318Z,16.75
2022-07-27T02:02:50.083Z,16.71
2022-07-27T02:05:17.886Z,16.70
2022-07-27T02:07:45.608Z,16.71
2022-07-27T02:10:13.487Z,16.71
2022-07-27T02:12:40.229Z,16.69
2022-07-27T02:15:15.186Z,16.63
2022-07-27T02:17:43.718Z,16.61
2022-07-27T02:20:14.208Z,16.58
2022-07-27T02:22:42.291Z,16.50
2022-07-27T02:25:11.797Z,16.48
2022-07-27T02:27:40.218Z,16.46
2022-07-27T02:30:11.365Z,16.44
2022-07-27T02:32:39.156Z,16.40
2022-07-27T02:35:18.872Z,16.38
2022-07-27T02:37:47.892Z,16.37
2022-07-27T02:40:17.118Z,16.36
2022-07-27T02:42:45.417Z,16.33
2022-07-27T02:45:14.704Z,16.31
2022-07-27T02:47:42.662Z,16.26
2022-07-27T02:50:10.934Z,16.13
2022-07-27T02:52:38.950Z,16.07
2022-07-27T02:55:08.333Z,16.08
2022-07-27T02:57:37.965Z,16.01
2022-07-27T03:00:06.952Z,15.94
2022-07-27T03:02:36.616Z,15.96
2022-07-27T03:05:05.655Z,15.96
2022-07-27T03:07:33.826Z,15.97
2022-07-27T03:10:01.956Z,15.98
2022-07-27T03:12:29.902Z,15.91
2022-07-27T03:14:58.309Z,15.89
2022-07-27T03:17:26.179Z,15.89
2022-07-27T03:19:55.268Z,15.89
2022-07-27T03:22:23.147Z,15.85
2022-07-27T03:24:51.046Z,15.78
2022-07-27T03:27:18.885Z,15.69
2022-07-27T03:29:46.796Z,15.69
2022-07-27T03:32:14.512Z,15.70
2022-07-27T03:34:42.272Z,15.66
2022-07-27T03:37:11.480Z,15.67
2022-07-27T03:39:39.186Z,15.67
2022-07-27T03:42:07.281Z,15.64
2022-07-27T03:44:35.006Z,15.63
2022-07-27T03:47:02.775Z,15.63
2022-07-27T03:49:30.567Z,15.63
2022-07-27T03:51:58.568Z,15.61
2022-07-27T03:54:27.813Z,15.60
2022-07-27T03:56:55.590Z,15.60
2022-07-27T03:59:23.322Z,15.59
2022-07-27T04:01:51.065Z,15.54
2022-07-27T04:04:18.780Z,15.51
2022-07-27T04:06:46.554Z,15.53
2022-07-27T04:09:16.933Z,15.54
2022-07-27T04:11:50.883Z,15.57
2022-07-27T04:14:19.791Z,15.57
2022-07-27T04:16:48.146Z,15.57
2022-07-27T04:19:16.274Z,15.49
2022-07-27T04:21:44.286Z,15.49
2022-07-27T04:24:12.014Z,15.54
2022-07-27T04:26:39.839Z,15.58
2022-07-27T04:29:09.061Z,15.63
2022-07-27T04:31:37.166Z,15.65
2022-07-27T04:34:04.938Z,15.66
2022-07-27T04:36:32.677Z,15.64
2022-07-27T04:39:00.388Z,15.63
2022-07-27T04:41:30.580Z,15.65
2022-07-27T04:43:58.643Z,15.70
2022-07-27T04:46:29.504Z,15.72
2022-07-27T04:48:57.822Z,15.79
2022-07-27T04:51:25.662Z,15.81
2022-07-27T04:53:58.598Z,15.81
2022-07-27T04:56:27.294Z,15.82
2022-07-27T04:58:55.544Z,15.88
2022-07-27T05:01:25.464Z,15.91
2022-07-27T05:03:54.975Z,15.94
2022-07-27T05:06:23.021Z,15.97
2022-07-27T05:08:50.820Z,15.96
2022-07-27T05:11:18.537Z,15.99
2022-07-27T05:13:46.309Z,15.96
2022-07-27T05:16:14.281Z,16.01
2022-07-27T05:18:42.087Z,16.08
2022-07-27T05:21:11.231Z,16.22
2022-07-27T05:23:38.961Z,16.34
2022-07-27T05:26:06.650Z,16.60
2022-07-27T05:28:34.435Z,16.90
2022-07-27T05:31:02.531Z,17.15
2022-07-27T05:33:30.336Z,17.43
2022-07-27T05:35:58.221Z,17.65
2022-07-27T05:38:27.308Z,17.82
2022-07-27T05:40:55.051Z,17.90
2022-07-27T05:43:22.787Z,17.77
2022-07-27T05:45:50.627Z,17.75
2022-07-27T05:48:18.580Z,17.71
2022-07-27T05:50:46.293Z,17.71
2022-07-27T05:53:13.984Z,17.59
2022-07-27T05:55:57.819Z,17.60
2022-07-27T05:58:26.708Z,17.50
2022-07-27T06:00:54.488Z,17.50
2022-07-27T06:03:22.590Z,17.53
2022-07-27T06:05:50.452Z,17.54
2022-07-27T06:08:17.437Z,17.58
2022-07-27T06:10:47.077Z,17.60
2022-07-27T06:13:14.799Z,17.59
2022-07-27T06:15:42.557Z,17.59
2022-07-27T06:18:18.040Z,17.51
2022-07-27T06:20:46.866Z,17.60
2022-07-27T06:23:14.641Z,17.68
2022-07-27T06:25:42.416Z,17.61
2022-07-27T06:28:11.485Z,17.71
2022-07-27T06:30:39.219Z,17.72
2022-07-27T06:33:07.082Z,17.82
2022-07-27T06:35:38.997Z,17.66
2022-07-27T06:38:07.057Z,17.74
2022-07-27T06:40:34.814Z,17.89
2022-07-27T06:43:02.867Z,17.89
2022-07-27T06:45:32.229Z,17.97
2022-07-27T06:47:59.926Z,17.88
2022-07-27T06:50:27.961Z,17.86
2022-07-27T06:52:55.688Z,17.85
2022-07-27T06:55:23.434Z,17.86
2022-07-27T06:57:51.148Z,18.01
2022-07-27T07:00:18.939Z,18.12
2022-07-27T07:02:59.797Z,18.24
2022-07-27T07:05:28.104Z,18.37
2022-07-27T07:07:56.401Z,18.24
2022-07-27T07:10:26.014Z,18.30
2022-07-27T07:12:56.503Z,18.14
2022-07-27T07:15:26.250Z,18.29
2022-07-27T07:17:55.884Z,18.49
2022-07-27T07:20:24.010Z,18.69
2022-07-27T07:22:52.008Z,18.88
2022-07-27T07:25:20.040Z,18.98
2022-07-27T07:27:47.820Z,19.03
2022-07-27T07:30:15.853Z,18.98
2022-07-27T07:32:43.612Z,19.05
2022-07-27T07:35:12.861Z,19.05
2022-07-27T07:37:40.951Z,19.12
2022-07-27T07:40:40.630Z,19.10
2022-07-27T07:43:00.876Z,19.04
2022-07-27T07:45:30.227Z,19.06
2022-07-27T07:47:58.769Z,19.11
2022-07-27T07:50:27.910Z,19.19
2022-07-27T07:52:55.707Z,19.36
2022-07-27T07:55:25.175Z,19.53
2022-07-27T07:57:53.574Z,19.72
2022-07-27T08:00:22.411Z,19.83
2022-07-27T08:02:52.522Z,19.91
2022-07-27T08:05:20.998Z,19.92
2022-07-27T08:07:51.472Z,19.97
2022-07-27T08:10:21.282Z,19.96
2022-07-27T08:12:51.022Z,20.09
2022-07-27T08:15:19.061Z,20.22
2022-07-27T08:17:47.564Z,20.32
2022-07-27T08:20:17.164Z,20.31
2022-07-27T08:22:46.365Z,20.29
2022-07-27T08:25:15.719Z,20.02
2022-07-27T08:27:43.481Z,20.05
2022-07-27T08:30:15.538Z,20.04
2022-07-27T08:32:51.975Z,19.85
2022-07-27T08:35:20.815Z,20.02
2022-07-27T08:37:48.946Z,20.12
2022-07-27T08:43:06.635Z,20.00
2022-07-27T08:45:35.146Z,20.23
2022-07-27T08:48:03.598Z,20.43
2022-07-27T08:50:32.730Z,20.44
2022-07-27T08:53:03.855Z,20.46
2022-07-27T08:55:34.787Z,20.64
2022-07-27T08:58:03.900Z,20.73
2022-07-27T09:00:33.066Z,20.87
2022-07-27T09:03:01.019Z,20.94
2022-07-27T09:05:37.010Z,20.89
2022-07-27T09:08:13.336Z,21.12
2022-07-27T09:10:42.720Z,21.00
2022-07-27T09:13:25.243Z,21.14
2022-07-27T09:18:41.969Z,21.44
2022-07-27T09:21:15.239Z,21.65
2022-07-27T09:23:44.821Z,21.73
2022-07-27T09:26:31.139Z,21.75
2022-07-27T09:29:03.256Z,21.73
2022-07-27T09:31:31.476Z,21.85
2022-07-27T09:34:02.062Z,21.82
2022-07-27T09:36:31.472Z,21.50
2022-07-27T09:39:03.235Z,21.48
2022-07-27T09:41:43.270Z,21.13
2022-07-27T09:46:59.871Z,21.23
2022-07-27T09:49:30.009Z,21.29
2022-07-27T09:52:00.992Z,21.36
2022-07-27T09:54:42.108Z,21.44
2022-07-27T09:57:11.811Z,21.22
2022-07-27T09:59:39.564Z,21.45
2022-07-27T10:02:08.067Z,21.67
2022-07-27T10:04:35.954Z,21.95
2022-07-27T10:07:06.292Z,22.14
2022-07-27T10:09:37.272Z,22.00
2022-07-27T10:12:05.520Z,21.94
2022-07-27T10:14:35.279Z,21.93
2022-07-27T10:17:04.167Z,21.95
2022-07-27T10:19:40.664Z,21.94
2022-07-27T10:22:08.491Z,21.92
2022-07-27T10:24:37.032Z,21.90
2022-07-27T10:27:20.584Z,21.88
2022-07-27T10:29:51.773Z,21.95
2022-07-27T10:32:26.481Z,22.30
2022-07-27T10:34:54.766Z,22.75
2022-07-27T10:37:26.345Z,22.89
2022-07-27T10:40:17.090Z,22.98
2022-07-27T10:42:47.977Z,23.16
2022-07-27T10:45:21.009Z,22.91
2022-07-27T10:47:51.126Z,22.93
2022-07-27T10:50:29.752Z,23.13
2022-07-27T10:52:59.632Z,23.14
2022-07-27T10:55:50.756Z,23.36
2022-07-27T10:58:43.881Z,23.01
2022-07-27T11:01:16.842Z,22.85
2022-07-27T11:03:55.942Z,22.90
2022-07-27T11:06:37.652Z,22.91
2022-07-27T11:12:04.780Z,23.31
2022-07-27T11:14:32.594Z,23.26
2022-07-27T11:19:54.816Z,23.00
2022-07-27T11:23:03.130Z,23.05
2022-07-27T11:25:21.673Z,23.13
2022-07-27T11:30:25.609Z,22.74
2022-07-27T11:32:55.907Z,22.58
2022-07-27T11:35:24.937Z,22.28
2022-07-27T11:38:01.452Z,22.14
2022-07-27T11:43:33.488Z,22.31
2022-07-27T11:46:16.396Z,22.70
2022-07-27T11:49:06.536Z,22.97
2022-07-27T11:51:36.256Z,23.46
2022-07-27T11:54:06.276Z,23.84
2022-07-27T11:56:35.949Z,23.95
2022-07-27T11:59:11.278Z,24.02
2022-07-27T12:01:41.415Z,23.89
2022-07-27T12:04:25.478Z,23.64
2022-07-27T12:07:03.708Z,23.31
2022-07-27T12:09:33.554Z,23.07
2022-07-27T12:12:12.437Z,23.03
2022-07-27T12:14:42.416Z,23.14
2022-07-27T12:17:19.371Z,22.92
2022-07-27T12:19:58.308Z,23.03
2022-07-27T12:22:27.828Z,22.86
2022-07-27T12:24:56.511Z,23.04
2022-07-27T12:27:26.219Z,23.07
2022-07-27T12:30:11.275Z,23.10
2022-07-27T12:32:42.033Z,22.89
2022-07-27T12:35:26.685Z,22.88
2022-07-27T12:37:58.761Z,23.08
2022-07-27T12:40:26.382Z,23.33
2022-07-27T12:42:59.832Z,23.56
2022-07-27T12:45:32.519Z,23.54
2022-07-27T12:48:08.730Z,23.50
2022-07-27T12:50:38.502Z,23.19
2022-07-27T12:53:06.586Z,23.24
2022-07-27T12:55:34.890Z,23.35
2022-07-27T12:58:02.691Z,23.47
2022-07-27T13:00:34.071Z,23.62
2022-07-27T13:03:03.355Z,23.75
2022-07-27T13:05:31.986Z,23.70
2022-07-27T13:08:03.239Z,23.54
2022-07-27T13:10:31.191Z,23.32
2022-07-27T13:12:59.326Z,23.22
2022-07-27T13:15:27.756Z,23.24
2022-07-27T13:17:55.567Z,23.23
2022-07-27T13:20:23.667Z,23.23
2022-07-27T13:22:53.011Z,23.28
2022-07-27T13:25:22.214Z,23.19
2022-07-27T13:27:50.592Z,23.07
2022-07-27T13:30:19.491Z,23.17
2022-07-27T13:32:47.954Z,23.30
2022-07-27T13:35:16.831Z,23.21
2022-07-27T13:37:46.009Z,23.20
2022-07-27T13:40:15.146Z,23.12
2022-07-27T13:42:44.644Z,23.42
2022-07-27T13:45:12.728Z,23.78
2022-07-27T13:47:41.767Z,24.09
2022-07-27T13:50:17.805Z,24.20
2022-07-27T13:52:46.762Z,24.36
2022-07-27T13:55:15.394Z,24.25
2022-07-27T13:57:45.134Z,24.04
2022-07-27T14:00:14.019Z,24.02
2022-07-27T14:02:42.164Z,24.17
2022-07-27T14:05:13.179Z,24.29
2022-07-27T14:07:42.927Z,24.27
2022-07-27T14:10:30.550Z,24.20
2022-07-27T14:13:07.749Z,24.19
2022-07-27T14:15:50.628Z,24.20
2022-07-27T14:18:22.285Z,24.25
2022-07-27T14:20:50.249Z,24.14
2022-07-27T14:23:18.049Z,24.09
2022-07-27T14:25:46.483Z,24.07
2022-07-27T14:28:16.066Z,23.85
2022-07-27T14:30:43.892Z,23.72
2022-07-27T14:33:11.672Z,23.73
2022-07-27T14:35:41.125Z,23.62
2022-07-27T14:38:09.302Z,23.62
2022-07-27T14:40:37.189Z,23.39
2022-07-27T14:43:05.482Z,23.37
2022-07-27T14:45:44.448Z,23.37
2022-07-27T14:48:21.037Z,22.89
2022-07-27T14:50:50.965Z,22.90
2022-07-27T14:53:18.832Z,23.13
2022-07-27T14:55:46.686Z,23.27
2022-07-27T14:58:14.512Z,23.39
2022-07-27T15:00:43.737Z,23.33
2022-07-27T15:03:14.682Z,23.27
2022-07-27T15:05:50.577Z,23.04
2022-07-27T15:08:19.394Z,22.94
2022-07-27T15:10:47.437Z,22.87
2022-07-27T15:13:18.360Z,22.76
2022-07-27T15:15:48.728Z,22.93
2022-07-27T15:18:19.289Z,23.09
2022-07-27T15:20:47.217Z,23.12
2022-07-27T15:23:14.968Z,23.13
2022-07-27T15:25:42.702Z,23.12
2022-07-27T15:28:10.800Z,23.18
2022-07-27T15:30:39.051Z,23.23
2022-07-27T15:33:08.707Z,23.14
2022-07-27T15:35:36.654Z,23.01
2022-07-27T15:38:04.949Z,23.05
2022-07-27T15:40:38.948Z,22.99
2022-07-27T15:43:10.704Z,23.12
2022-07-27T15:45:39.345Z,23.08
2022-07-27T15:48:10.435Z,23.14
2022-07-27T15:50:42.473Z,23.13
2022-07-27T15:53:12.011Z,23.11
2022-07-27T15:58:08.016Z,22.76
2022-07-27T16:00:40.496Z,22.79
2022-07-27T16:03:10.787Z,22.74
2022-07-27T16:05:39.056Z,22.74
2022-07-27T16:08:09.588Z,22.73
2022-07-27T16:10:37.786Z,22.75
2022-07-27T16:13:06.027Z,22.85
2022-07-27T16:15:51.982Z,22.73
2022-07-27T16:18:21.495Z,22.86
2022-07-27T16:20:49.324Z,22.95
2022-07-27T16:23:21.623Z,22.97
2022-07-27T16:26:08.193Z,23.07
2022-07-27T16:28:39.708Z,23.10
2022-07-27T16:31:10.351Z,23.20
2022-07-27T16:33:39.914Z,23.35
2022-07-27T16:36:08.845Z,23.41
2022-07-27T16:38:37.215Z,23.34
2022-07-27T16:41:07.302Z,23.21
2022-07-27T16:43:38.615Z,22.97
2022-07-27T16:46:08.495Z,22.91
2022-07-27T16:48:41.706Z,22.85
2022-07-27T16:51:12.297Z,22.83
2022-07-27T16:53:41.227Z,22.88
2022-07-27T16:56:09.864Z,23.04
2022-07-27T16:58:38.071Z,23.22
2022-07-27T17:01:06.375Z,23.41
2022-07-27T17:03:34.151Z,23.50
2022-07-27T17:06:06.095Z,23.48
2022-07-27T17:08:39.007Z,23.45
2022-07-27T17:11:06.956Z,23.43
2022-07-27T17:13:37.139Z,23.47
2022-07-27T17:16:06.467Z,23.32
2022-07-27T17:18:39.905Z,23.33
2022-07-27T17:21:09.372Z,23.23
2022-07-27T17:23:39.719Z,23.00
2022-07-27T17:26:10.796Z,22.98
2022-07-27T17:28:40.325Z,22.89
2022-07-27T17:31:10.338Z,22.76
2022-07-27T17:33:38.558Z,22.71
2022-07-27T17:36:12.307Z,22.57
2022-07-27T17:38:43.847Z,22.48
2022-07-27T17:41:11.702Z,22.49
2022-07-27T17:43:39.543Z,22.35
2022-07-27T17:46:08.112Z,22.28
2022-07-27T17:48:36.241Z,22.24
2022-07-27T17:51:04.706Z,22.17
2022-07-27T17:53:32.518Z,22.12
2022-07-27T17:56:02.701Z,22.12
2022-07-27T17:58:30.819Z,22.12
2022-07-27T18:00:58.873Z,22.11
2022-07-27T18:03:26.746Z,22.13
2022-07-27T18:05:54.930Z,22.08
2022-07-27T18:08:25.529Z,22.08
2022-07-27T18:10:53.281Z,22.02
2022-07-27T18:13:22.405Z,21.95
2022-07-27T18:15:50.586Z,21.89
2022-07-27T18:18:22.034Z,21.88
2022-07-27T18:20:58.536Z,21.75
2022-07-27T18:23:26.825Z,21.68
2022-07-27T18:25:55.024Z,21.58
2022-07-27T18:28:24.767Z,21.48
2022-07-27T18:30:53.937Z,21.48
2022-07-27T18:33:22.534Z,21.46
2022-07-27T18:35:50.290Z,21.46
2022-07-27T18:38:19.027Z,21.40
2022-07-27T18:40:48.788Z,21.34
2022-07-27T18:43:16.826Z,21.26
2022-07-27T18:45:46.018Z,21.19
2022-07-27T18:48:13.838Z,21.18
2022-07-27T18:50:41.833Z,21.11
2022-07-27T18:53:10.168Z,21.03
2022-07-27T18:55:38.719Z,20.99
2022-07-27T18:58:07.006Z,20.89
2022-07-27T19:00:35.039Z,20.90
2022-07-27T19:03:04.425Z,20.91
2022-07-27T19:05:41.692Z,20.77
2022-07-27T19:08:12.993Z,20.71
2022-07-27T19:10:42.016Z,20.68
2022-07-27T19:13:10.446Z,20.63
2022-07-27T19:15:38.370Z,20.58
2022-07-27T19:18:10.397Z,20.58
2022-07-27T19:20:38.596Z,20.60
2022-07-27T19:23:06.621Z,20.52
2022-07-27T19:25:34.788Z,20.35
2022-07-27T19:28:03.167Z,20.25
2022-07-27T19:30:31.164Z,20.26
2022-07-27T19:32:59.021Z,20.24
2022-07-27T19:35:28.255Z,20.18
2022-07-27T19:37:56.059Z,20.13
2022-07-27T19:43:13.608Z,20.02
2022-07-27T19:45:43.541Z,20.08
2022-07-27T19:48:11.387Z,20.02
2022-07-27T19:50:41.186Z,19.87
2022-07-27T19:53:09.541Z,19.86
2022-07-27T19:55:37.427Z,19.81
2022-07-27T19:58:05.301Z,19.73
2022-07-27T20:00:33.151Z,19.64
2022-07-27T20:03:01.749Z,19.67
2022-07-27T20:05:29.692Z,19.60
2022-07-27T20:07:58.869Z,19.61
2022-07-27T20:10:27.026Z,19.57
2022-07-27T20:12:54.933Z,19.57
2022-07-27T20:15:22.822Z,19.51
2022-07-27T20:17:50.869Z,19.47
2022-07-27T20:20:18.669Z,19.45
2022-07-27T20:22:46.693Z,19.39
2022-07-27T20:25:16.391Z,19.40
2022-07-27T20:27:44.271Z,19.36
2022-07-27T20:30:17.446Z,19.16
2022-07-27T20:32:46.268Z,19.08
2022-07-27T20:35:14.560Z,18.99
2022-07-27T20:37:42.466Z,19.00
2022-07-27T20:40:11.813Z,19.06
2022-07-27T20:42:41.548Z,18.97
2022-07-27T20:45:11.515Z,18.99
2022-07-27T20:47:39.813Z,18.94
2022-07-27T20:50:09.289Z,18.93
2022-07-27T20:52:37.146Z,18.87
2022-07-27T20:55:05.595Z,18.87
2022-07-27T20:57:33.431Z,18.83
2022-07-27T21:00:02.603Z,18.84
2022-07-27T21:02:30.448Z,18.80
2022-07-27T21:04:59.373Z,18.83
2022-07-27T21:07:28.064Z,18.73
2022-07-27T21:09:55.834Z,18.64
2022-07-27T21:12:23.594Z,18.56
2022-07-27T21:14:51.416Z,18.54
2022-07-27T21:17:20.609Z,18.54
2022-07-27T21:19:48.369Z,18.54
2022-07-27T21:22:16.215Z,18.43
2022-07-27T21:24:42.987Z,18.38
2022-07-27T21:27:12.619Z,18.18
2022-07-27T21:29:41.030Z,18.21
2022-07-27T21:32:08.922Z,18.19
2022-07-27T21:34:38.093Z,18.16
2022-07-27T21:37:05.897Z,18.04
2022-07-27T21:39:33.648Z,17.92
2022-07-27T21:42:02.389Z,17.84
2022-07-27T21:44:30.561Z,17.77
2022-07-27T21:46:58.370Z,17.86
2022-07-27T21:49:29.851Z,17.80
2022-07-27T21:52:03.877Z,17.81
2022-07-27T21:54:31.688Z,17.72
2022-07-27T21:56:59.464Z,17.61
2022-07-27T21:59:27.268Z,17.43
2022-07-27T22:01:55.006Z,17.39
2022-07-27T22:04:23.200Z,17.43
2022-07-27T22:06:51.032Z,17.44
2022-07-27T22:09:21.077Z,17.47
2022-07-27T22:11:48.920Z,17.51
2022-07-27T22:14:17.408Z,17.55
2022-07-27T22:16:45.553Z,17.49
2022-07-27T22:19:14.132Z,17.46
2022-07-27T22:21:41.848Z,17.33
2022-07-27T22:24:09.798Z,17.28
2022-07-27T22:26:39.085Z,17.19
2022-07-27T22:29:06.946Z,17.19
2022-07-27T22:31:34.787Z,17.16
2022-07-27T22:34:02.601Z,17.18
2022-07-27T22:36:30.424Z,17.08
2022-07-27T22:38:58.179Z,17.01
2022-07-27T22:41:25.950Z,16.97
2022-07-27T22:43:55.134Z,16.99
2022-07-27T22:46:25.779Z,16.99
2022-07-27T22:48:53.902Z,16.99
2022-07-27T22:51:21.813Z,17.01
2022-07-27T22:53:49.605Z,17.03
2022-07-27T22:56:17.407Z,17.01
2022-07-27T22:58:45.269Z,17.06
2022-07-27T23:01:21.597Z,17.06
2022-07-27T23:04:02.410Z,17.06
2022-07-27T23:06:30.157Z,17.07
2022-07-27T23:08:57.966Z,16.97
2022-07-27T23:11:25.714Z,16.92
2022-07-27T23:13:53.484Z,16.85
2022-07-27T23:16:22.674Z,16.82
2022-07-27T23:18:50.432Z,16.77
2022-07-27T23:21:18.318Z,16.67
2022-07-27T23:23:53.419Z,16.65
2022-07-27T23:26:25.838Z,16.75
2022-07-27T23:28:56.574Z,16.75
2022-07-27T23:31:26.128Z,16.62
2022-07-27T23:33:53.981Z,16.61
2022-07-27T23:36:21.756Z,16.73
2022-07-27T23:38:49.586Z,16.75
2022-07-27T23:41:17.405Z,16.77
2022-07-27T23:43:45.512Z,16.75
2022-07-27T23:46:13.351Z,16.71
2022-07-27T23:48:42.772Z,16.73
2022-07-27T23:51:10.644Z,16.73
2022-07-27T23:53:38.378Z,16.73
2022-07-27T23:56:06.583Z,16.75
2022-07-27T23:58:34.344Z,16.65
